createdAt,value
2022-11-08T00:03:04.956Z,11.53
2022-11-08T00:08:26.020Z,13.77
2022-11-08T00:13:46.887Z,16.43
2022-11-08T00:18:49.547Z,15.70
2022-11-08T00:23:52.027Z,14.20
2022-11-08T00:28:54.986Z,19.83
2022-11-08T00:33:57.458Z,20.37
2022-11-08T00:38:59.877Z,16.97
2022-11-08T00:44:02.339Z,15.67
2022-11-08T00:49:06.063Z,19.60
2022-11-08T00:54:08.892Z,14.63
2022-11-08T00:59:13.017Z,13.83
2022-11-08T01:04:18.204Z,15.27
2022-11-08T01:09:20.732Z,18.10
2022-11-08T01:14:23.129Z,17.20
2022-11-08T01:19:25.544Z,14.03
2022-11-08T01:24:28.001Z,18.83
2022-11-08T01:29:30.545Z,16.90
2022-11-08T01:34:33.092Z,16.93
2022-11-08T01:39:35.481Z,17.27
2022-11-08T01:45:01.223Z,22.50
2022-11-08T01:50:06.111Z,21.40
2022-11-08T01:55:17.488Z,20.53
2022-11-08T02:00:20.218Z,17.63
2022-11-08T02:05:26.231Z,20.13
2022-11-08T02:10:40.039Z,13.07
2022-11-08T02:15:43.503Z,17.07
2022-11-08T02:21:14.814Z,19.23
2022-11-08T02:26:19.779Z,17.47
2022-11-08T02:31:22.385Z,16.10
2022-11-08T02:36:25.139Z,21.83
2022-11-08T02:41:27.619Z,19.60
2022-11-08T02:46:30.302Z,18.57
2022-11-08T02:51:32.786Z,19.13
2022-11-08T02:56:35.506Z,24.63
2022-11-08T03:01:38.185Z,33.43
2022-11-08T03:06:40.795Z,26.40
2022-11-08T03:11:43.360Z,24.13
2022-11-08T03:16:45.757Z,18.07
2022-11-08T03:21:48.248Z,20.47
2022-11-08T03:26:50.654Z,16.33
2022-11-08T03:31:53.054Z,19.60
2022-11-08T03:36:55.516Z,19.47
2022-11-08T03:42:00.879Z,15.73
2022-11-08T03:47:03.321Z,19.77
2022-11-08T03:52:05.721Z,20.83
2022-11-08T03:57:08.121Z,16.43
2022-11-08T04:02:10.712Z,20.90
2022-11-08T04:07:13.125Z,17.83
2022-11-08T04:12:34.108Z,20.60
2022-11-08T04:17:55.116Z,18.33
2022-11-08T04:22:57.785Z,19.30
2022-11-08T04:28:00.132Z,20.27
2022-11-08T04:33:04.230Z,23.17
2022-11-08T04:38:06.599Z,23.43
2022-11-08T04:43:09.188Z,27.43
2022-11-08T04:48:11.674Z,26.17
2022-11-08T04:53:14.154Z,23.87
2022-11-08T04:58:16.789Z,40.20
2022-11-08T05:03:19.366Z,45.73
2022-11-08T05:08:21.871Z,38.10
2022-11-08T05:13:24.315Z,33.60
2022-11-08T05:18:27.385Z,27.97
2022-11-08T05:23:30.012Z,25.20
2022-11-08T05:28:32.714Z,28.97
2022-11-08T05:33:35.779Z,20.40
2022-11-08T05:38:39.432Z,29.70
2022-11-08T05:43:43.680Z,31.50
2022-11-08T05:48:48.625Z,36.57
2022-11-08T05:53:51.141Z,30.07
2022-11-08T05:58:53.696Z,34.03
2022-11-08T06:03:56.225Z,65.67
2022-11-08T06:08:58.698Z,108.83
2022-11-08T06:14:01.150Z,117.03
2022-11-08T06:19:03.866Z,96.20
2022-11-08T06:24:06.791Z,72.37
2022-11-08T06:29:09.359Z,75.97
2022-11-08T06:34:12.290Z,78.67
2022-11-08T06:39:14.626Z,75.80
2022-11-08T06:44:17.141Z,70.10
2022-11-08T06:49:19.598Z,64.73
2022-11-08T06:54:25.783Z,82.60
2022-11-08T06:59:29.371Z,86.40
2022-11-08T07:04:31.785Z,34.40
2022-11-08T07:09:34.242Z,57.40
2022-11-08T07:14:36.722Z,38.70
2022-11-08T07:19:39.214Z,47.93
2022-11-08T07:24:41.599Z,33.83
2022-11-08T07:29:43.990Z,32.80
2022-11-08T07:34:46.670Z,35.80
2022-11-08T07:39:49.265Z,39.57
2022-11-08T07:44:51.871Z,39.63
2022-11-08T07:49:54.501Z,34.03
2022-11-08T07:54:57.040Z,37.67
2022-11-08T08:00:03.533Z,28.83
2022-11-08T08:05:14.365Z,19.40
2022-11-08T08:10:16.754Z,22.80
2022-11-08T08:15:19.366Z,20.40
2022-11-08T08:20:21.905Z,18.13
2022-11-08T08:25:25.226Z,16.70
2022-11-08T08:30:28.849Z,19.90
2022-11-08T08:35:31.782Z,19.10
2022-11-08T08:40:34.539Z,23.40
2022-11-08T08:45:37.231Z,25.73
2022-11-08T08:50:39.806Z,22.10
2022-11-08T08:55:43.024Z,23.50
2022-11-08T09:06:08.846Z,16.70
2022-11-08T09:11:11.374Z,21.90
2022-11-08T09:16:14.681Z,18.73
2022-11-08T09:21:17.611Z,18.90
2022-11-08T09:26:19.976Z,12.87
2022-11-08T09:31:22.491Z,14.17
2022-11-08T09:36:25.053Z,23.73
2022-11-08T09:41:27.858Z,14.60
2022-11-08T09:46:53.900Z,17.20
2022-11-08T09:51:59.066Z,15.53
2022-11-08T09:57:05.468Z,11.63
2022-11-08T10:02:23.042Z,13.33
2022-11-08T10:07:32.147Z,15.63
2022-11-08T10:13:16.491Z,11.90
2022-11-08T10:18:58.317Z,10.77
2022-11-08T10:24:00.633Z,12.70
2022-11-08T10:29:15.730Z,12.17
2022-11-08T10:34:24.843Z,15.40
2022-11-08T10:39:28.959Z,15.30
2022-11-08T10:44:31.565Z,10.47
2022-11-08T10:49:40.204Z,12.53
2022-11-08T10:54:47.779Z,11.73
2022-11-08T10:59:50.906Z,12.50
2022-11-08T11:05:13.163Z,12.43
2022-11-08T11:10:25.412Z,12.80
2022-11-08T11:15:36.988Z,13.50
2022-11-08T11:20:39.961Z,14.70
2022-11-08T11:25:51.524Z,13.97
2022-11-08T11:31:15.503Z,12.77
2022-11-08T11:36:22.089Z,14.50
2022-11-08T11:41:48.865Z,14.47
2022-11-08T11:47:06.633Z,8.77
2022-11-08T11:52:18.362Z,9.33
2022-11-08T11:57:23.779Z,12.50
2022-11-08T12:02:38.428Z,10.33
2022-11-08T12:08:13.272Z,9.40
2022-11-08T12:13:26.221Z,9.80
2022-11-08T12:18:43.701Z,8.40
2022-11-08T12:23:52.598Z,7.17
2022-11-08T12:29:16.866Z,11.33
2022-11-08T12:34:28.863Z,9.93
2022-11-08T12:40:05.368Z,11.17
2022-11-08T12:45:32.051Z,11.67
2022-11-08T12:51:00.312Z,9.17
2022-11-08T12:56:11.246Z,9.50
2022-11-08T13:01:16.858Z,12.53
2022-11-08T13:06:34.277Z,9.90
2022-11-08T13:11:41.585Z,7.83
2022-11-08T13:17:26.701Z,9.97
2022-11-08T13:22:29.236Z,7.13
2022-11-08T13:27:43.207Z,8.83
2022-11-08T13:33:04.106Z,6.23
2022-11-08T13:38:34.449Z,10.20
2022-11-08T13:43:36.983Z,6.80
2022-11-08T13:48:43.225Z,10.33
2022-11-08T13:53:49.915Z,8.20
2022-11-08T13:58:52.921Z,17.23
2022-11-08T14:03:58.056Z,9.80
2022-11-08T14:09:10.618Z,13.60
2022-11-08T14:14:28.929Z,10.70
2022-11-08T14:19:35.183Z,17.20
2022-11-08T14:24:38.917Z,10.57
2022-11-08T14:29:42.173Z,15.40
2022-11-08T14:34:45.298Z,17.13
2022-11-08T14:39:48.488Z,15.23
2022-11-08T14:44:56.295Z,14.37
2022-11-08T14:50:00.420Z,14.80
2022-11-08T14:55:09.370Z,10.83
2022-11-08T15:00:17.157Z,14.17
2022-11-08T15:05:31.963Z,11.40
2022-11-08T15:10:34.656Z,13.83
2022-11-08T15:15:37.456Z,14.07
2022-11-08T15:20:41.423Z,13.77
2022-11-08T15:25:43.892Z,17.63
2022-11-08T15:30:48.306Z,19.07
2022-11-08T15:35:51.029Z,18.73
2022-11-08T15:40:56.163Z,21.63
2022-11-08T15:46:00.599Z,17.93
2022-11-08T15:51:04.853Z,25.93
2022-11-08T15:56:07.625Z,32.73
2022-11-08T16:01:20.917Z,18.37
2022-11-08T16:06:23.563Z,28.07
2022-11-08T16:11:25.973Z,28.97
2022-11-08T16:16:32.676Z,34.00
2022-11-08T16:21:37.396Z,28.23
2022-11-08T16:26:42.747Z,25.10
2022-11-08T16:31:45.720Z,28.93
2022-11-08T16:36:49.835Z,33.03
2022-11-08T16:41:52.437Z,34.47
2022-11-08T16:46:55.213Z,22.20
2022-11-08T16:51:57.651Z,24.87
2022-11-08T16:57:28.674Z,26.67
2022-11-08T17:02:30.988Z,25.60
2022-11-08T17:07:34.371Z,25.83
2022-11-08T17:12:36.761Z,22.43
2022-11-08T17:17:40.040Z,22.90
2022-11-08T17:22:44.176Z,24.87
2022-11-08T17:27:47.581Z,23.67
2022-11-08T17:32:50.257Z,22.77
2022-11-08T17:37:53.774Z,30.67
2022-11-08T17:42:56.307Z,33.57
2022-11-08T17:47:58.867Z,30.93
2022-11-08T17:53:01.314Z,29.60
2022-11-08T17:58:03.945Z,31.17
2022-11-08T18:03:14.778Z,32.30
2022-11-08T18:08:18.209Z,33.23
2022-11-08T18:13:21.995Z,33.43
2022-11-08T18:18:24.662Z,32.43
2022-11-08T18:23:27.479Z,27.53
2022-11-08T18:28:30.744Z,33.07
2022-11-08T18:33:33.868Z,33.60
2022-11-08T18:38:40.504Z,41.77
2022-11-08T18:43:43.621Z,35.53
2022-11-08T18:48:46.497Z,41.80
2022-11-08T18:53:50.277Z,44.07
2022-11-08T18:58:54.365Z,44.23
2022-11-08T19:03:57.618Z,42.07
2022-11-08T19:09:00.924Z,40.53
2022-11-08T19:14:04.038Z,42.77
2022-11-08T19:19:06.952Z,37.17
2022-11-08T19:24:11.169Z,42.37
2022-11-08T19:29:14.461Z,36.70
2022-11-08T19:34:17.670Z,40.23
2022-11-08T19:39:21.079Z,37.47
2022-11-08T19:44:24.730Z,36.20
2022-11-08T19:49:28.831Z,39.20
2022-11-08T19:54:31.868Z,36.97
2022-11-08T19:59:34.999Z,41.47
2022-11-08T20:04:38.168Z,44.83
2022-11-08T20:09:41.379Z,35.83
2022-11-08T20:14:44.483Z,48.50
2022-11-08T20:19:47.251Z,47.63
2022-11-08T20:24:49.849Z,45.27
2022-11-08T20:29:52.341Z,48.87
2022-11-08T20:34:55.248Z,43.07
2022-11-08T20:39:57.876Z,45.67
2022-11-08T20:45:00.302Z,44.47
2022-11-08T20:50:02.785Z,48.77
2022-11-08T20:55:05.815Z,39.97
2022-11-08T21:00:13.430Z,41.57
2022-11-08T21:05:16.247Z,42.17
2022-11-08T21:15:46.419Z,44.43
2022-11-08T21:20:50.446Z,42.60
2022-11-08T21:25:53.219Z,42.23
2022-11-08T21:30:55.748Z,43.67
2022-11-08T21:35:59.224Z,43.23
2022-11-08T21:41:05.511Z,35.70
2022-11-08T21:46:25.711Z,43.87
2022-11-08T21:51:29.695Z,37.50
2022-11-08T21:56:34.562Z,41.07
2022-11-08T22:01:37.145Z,41.40
2022-11-08T22:06:42.579Z,59.77
2022-11-08T22:11:49.162Z,43.90
2022-11-08T22:16:51.744Z,50.00
2022-11-08T22:21:54.256Z,48.23
2022-11-08T22:26:57.003Z,46.80
2022-11-08T22:31:59.498Z,51.17
2022-11-08T22:37:02.087Z,48.33
2022-11-08T22:42:04.675Z,62.60
2022-11-08T22:47:07.372Z,60.20
2022-11-08T22:52:09.924Z,47.57
2022-11-08T22:57:12.355Z,38.27
2022-11-08T23:02:14.984Z,38.97
2022-11-08T23:07:17.569Z,41.43
2022-11-08T23:12:38.679Z,41.50
2022-11-08T23:17:41.218Z,38.10
2022-11-08T23:23:02.192Z,40.20
2022-11-08T23:28:23.114Z,36.90
2022-11-08T23:33:27.786Z,38.43
2022-11-08T23:38:30.478Z,38.77
2022-11-08T23:43:51.658Z,36.43
2022-11-08T23:48:54.235Z,40.97
2022-11-08T23:53:56.691Z,42.30
2022-11-08T23:59:00.244Z,41.43
